Time;durP1;ratioP1;P1;durP2;ratioP2;P2;SDS_P1;SDS_P2;PMS_P1;PMS_P2;Temp;Humidity;BMP_temperature;BMP_pressure;BME280_temperature;BME280_humidity;BME280_pressure;Samples;Min_cycle;Max_cycle;Signal;HPM_P1;HPM_P2
2022/02/08 00:02:02;;;;;;;3.07;0.77;;;7.30;99.90;;;;;;4882393;29;20278;-70
2022/02/08 00:04:29;;;;;;;7.93;1.20;;;7.30;99.90;;;;;;4882298;29;20222;-69
2022/02/08 00:06:56;;;;;;;5.80;0.90;;;7.30;99.90;;;;;;4881814;29;20579;-69
2022/02/08 00:09:25;;;;;;;6.43;0.73;;;7.40;99.90;;;;;;4895626;29;20221;-69
2022/02/08 00:11:52;;;;;;;9.97;1.03;;;7.40;99.90;;;;;;4899744;29;20313;-69
2022/02/08 00:14:18;;;;;;;9.13;1.47;;;7.40;99.90;;;;;;4882879;29;20246;-69
2022/02/08 00:16:46;;;;;;;14.07;1.20;;;7.50;99.90;;;;;;4892758;29;20210;-69
2022/02/08 00:19:14;;;;;;;4.60;1.17;;;7.50;99.90;;;;;;4900113;29;20207;-69
2022/02/08 00:21:41;;;;;;;8.40;0.90;;;7.60;99.90;;;;;;4897083;29;20278;-69
2022/02/08 00:24:08;;;;;;;10.67;1.20;;;7.60;99.90;;;;;;4881981;29;20211;-69
2022/02/08 10:40:01;;;;;;;1.50;0.43;;;11.80;99.90;;;;;;4916484;29;20222;-74
2022/02/08 10:42:29;;;;;;;0.60;0.37;;;11.70;99.90;;;;;;4934520;29;20610;-73
2022/02/08 10:44:57;;;;;;;1.13;0.53;;;11.60;99.90;;;;;;4934828;29;20671;-73
2022/02/08 10:47:37;;;;;;;2.77;0.40;;;11.70;99.90;;;;;;4934799;29;20212;-73
2022/02/08 10:50:07;;;;;;;1.60;0.43;;;11.70;99.90;;;;;;4934722;29;20209;-71
2022/02/08 10:52:36;;;;;;;1.27;0.50;;;11.80;99.90;;;;;;4934870;29;20225;-72
2022/02/08 10:55:12;;;;;;;1.07;0.60;;;11.90;99.90;;;;;;4934259;29;20243;-77
2022/02/08 10:57:49;;;;;;;1.20;0.60;;;11.80;99.90;;;;;;4926871;29;20205;-72
2022/02/08 11:00:22;;;;;;;6.73;1.80;;;11.70;99.90;;;;;;4915884;29;20303;-74
2022/02/08 11:02:52;;;;;;;3.07;0.97;;;11.70;99.90;;;;;;4926469;29;20264;-77
2022/02/08 11:05:26;;;;;;;1.77;0.47;;;11.90;99.90;;;;;;4935157;29;20213;-73
2022/02/08 11:08:10;;;;;;;1.87;0.70;;;12.00;99.90;;;;;;4935403;29;20236;-72
2022/02/08 11:13:38;;;;;;;2.30;0.40;;;12.10;99.90;;;;;;4930975;29;20221;-73
2022/02/08 11:16:17;;;;;;;1.50;0.40;;;12.00;99.90;;;;;;4917162;29;20214;-73
2022/02/08 11:19:03;;;;;;;6.80;0.93;;;11.90;99.90;;;;;;4915384;29;20241;-75
2022/02/08 11:21:41;;;;;;;1.90;0.60;;;12.00;99.90;;;;;;4915876;29;20297;-72
2022/02/08 11:24:24;;;;;;;1.27;0.70;;;11.80;99.90;;;;;;4934470;29;20216;-72
2022/02/08 11:26:56;;;;;;;1.30;0.70;;;11.60;99.90;;;;;;4934762;29;20219;-75
2022/02/08 11:29:27;;;;;;;1.40;0.77;;;11.30;99.90;;;;;;4934651;29;20730;-74
2022/02/08 11:32:05;;;;;;;2.10;0.70;;;11.20;99.90;;;;;;4931551;29;20256;-74
2022/02/08 11:43:39;;;;;;;1.80;0.73;;;11.30;99.90;;;;;;4933604;29;20623;-72
2022/02/08 11:46:28;;;;;;;2.07;0.60;;;11.00;99.90;;;;;;4934220;29;20208;-72
2022/02/08 11:49:30;;;;;;;1.83;0.80;;;11.00;99.90;;;;;;4932747;29;20236;-74
2022/02/08 11:52:23;;;;;;;1.40;0.80;;;11.10;99.90;;;;;;4916185;29;20292;-73
2022/02/08 11:58:05;;;;;;;2.80;0.80;;;11.00;99.90;;;;;;4922886;29;20202;-71
2022/02/08 12:00:37;;;;;;;0.83;0.67;;;11.20;99.90;;;;;;4916187;29;20210;-74
2022/02/08 12:03:44;;;;;;;3.70;0.43;;;11.10;99.90;;;;;;4916334;29;20232;-71
2022/02/08 12:09:31;;;;;;;0.93;0.50;;;10.70;99.90;;;;;;5131059;27;21120;-72
2022/02/08 12:12:29;;;;;;;1.30;0.60;;;10.60;99.90;;;;;;5131079;27;20710;-71
2022/02/08 12:32:20;;;;;;;1.07;0.70;;;10.90;99.90;;;;;;5109857;28;20225;-71
2022/02/08 12:35:09;;;;;;;1.40;0.70;;;10.90;99.90;;;;;;5114787;28;20198;-72
2022/02/08 12:49:27;;;;;;;1.93;0.70;;;11.40;99.90;;;;;;5118608;28;20256;-72
2022/02/08 12:54:51;;;;;;;1.23;0.80;;;11.30;99.90;;;;;;5109639;28;20667;-71
2022/02/08 12:57:30;;;;;;;0.80;0.70;;;11.40;99.90;;;;;;5123747;28;20261;-71
2022/02/08 13:00:19;;;;;;;0.93;0.60;;;11.40;99.90;;;;;;5109279;28;20221;-73
2022/02/08 13:03:07;;;;;;;1.67;0.50;;;11.40;99.90;;;;;;5109689;28;20222;-73
2022/02/08 14:04:13;;;;;;;0.83;0.40;;;12.00;99.90;;;;;;5095304;28;20236;-71
2022/02/08 14:06:51;;;;;;;1.27;0.43;;;12.00;99.90;;;;;;5093224;28;20202;-70
2022/02/08 14:09:29;;;;;;;0.80;0.40;;;12.10;99.90;;;;;;5092983;28;20867;-70
2022/02/08 14:12:20;;;;;;;1.90;0.40;;;12.10;99.90;;;;;;5093514;28;20229;-71
2022/02/08 14:14:54;;;;;;;1.27;0.40;;;12.10;99.90;;;;;;5093878;28;20199;-70
2022/02/08 14:20:26;;;;;;;0.90;0.50;;;12.20;99.90;;;;;;5097256;28;20781;-70
2022/02/08 14:23:11;;;;;;;0.83;0.40;;;12.40;99.90;;;;;;5093905;28;20268;-70
2022/02/08 14:25:49;;;;;;;0.30;0.30;;;12.30;99.90;;;;;;5094003;28;20285;-71
2022/02/08 14:31:11;;;;;;;0.60;0.30;;;12.30;99.90;;;;;;5094994;28;20229;-70
2022/02/08 14:34:08;;;;;;;1.30;0.50;;;12.20;99.90;;;;;;5105834;28;20620;-72
2022/02/08 14:36:53;;;;;;;0.77;0.30;;;12.00;99.90;;;;;;5103054;28;20191;-72
2022/02/08 15:07:04;;;;;;;1.57;0.87;;;11.60;99.90;;;;;;5107035;28;20635;-72
2022/02/08 15:09:35;;;;;;;3.20;0.93;;;11.60;99.90;;;;;;5093113;28;20234;-71
2022/02/08 15:12:11;;;;;;;1.60;0.50;;;11.60;99.90;;;;;;5089886;28;20225;-70
2022/02/08 15:14:45;;;;;;;2.20;0.80;;;11.60;99.90;;;;;;5094832;28;20193;-71
2022/02/08 15:17:12;;;;;;;1.30;0.57;;;11.40;99.90;;;;;;5098642;28;20368;-74
2022/02/08 15:19:41;;;;;;;3.27;0.60;;;11.50;99.90;;;;;;5091641;28;20495;-73
2022/02/08 15:22:09;;;;;;;0.70;0.40;;;11.40;99.90;;;;;;5108726;28;20648;-75
2022/02/08 15:24:36;;;;;;;1.40;0.77;;;11.50;99.90;;;;;;5095428;28;20205;-74
2022/02/08 15:27:06;;;;;;;1.03;0.60;;;11.50;99.90;;;;;;5091155;28;20218;-73
2022/02/08 15:29:33;;;;;;;4.60;0.80;;;11.40;99.90;;;;;;5091675;28;20284;-77
2022/02/08 15:32:01;;;;;;;2.37;0.43;;;11.30;99.90;;;;;;5105375;28;20229;-75
2022/02/08 15:34:28;;;;;;;1.23;0.40;;;11.30;99.90;;;;;;5110535;28;20197;-74
2022/02/08 15:36:55;;;;;;;0.70;0.40;;;11.40;99.90;;;;;;5111892;28;20625;-73
2022/02/08 15:39:22;;;;;;;1.53;0.77;;;11.40;99.90;;;;;;5107878;28;20195;-74
2022/02/08 15:41:49;;;;;;;2.73;0.50;;;11.50;99.90;;;;;;5092071;28;20226;-73
2022/02/08 15:44:21;;;;;;;2.47;0.50;;;11.50;99.90;;;;;;5092936;28;20208;-73
2022/02/08 15:46:48;;;;;;;1.40;0.60;;;11.40;99.90;;;;;;5093114;28;20293;-75
2022/02/08 15:49:16;;;;;;;3.60;0.50;;;11.40;99.90;;;;;;5092841;28;20238;-74
2022/02/08 15:51:45;;;;;;;3.00;0.40;;;11.40;99.90;;;;;;5092585;28;20222;-73
2022/02/08 15:54:21;;;;;;;2.37;0.43;;;11.40;99.90;;;;;;5092611;28;20553;-73
2022/02/08 15:57:06;;;;;;;0.50;0.40;;;11.40;99.90;;;;;;5092061;28;20201;-73
2022/02/08 16:05:27;;;;;;;1.33;0.40;;;11.30;99.90;;;;;;5053486;28;20211;-73
2022/02/08 16:07:58;;;;;;;0.80;0.40;;;11.30;99.90;;;;;;5092436;28;20653;-74
2022/02/08 16:10:30;;;;;;;2.27;0.53;;;11.30;99.90;;;;;;5092725;28;20210;-75
2022/02/08 16:13:22;;;;;;;1.23;0.60;;;11.10;99.90;;;;;;5092230;28;20323;-74
2022/02/08 16:16:10;;;;;;;2.67;0.60;;;11.10;99.90;;;;;;5092036;28;20252;-75
2022/02/08 16:18:46;;;;;;;1.53;0.57;;;11.30;99.90;;;;;;5092690;28;20198;-75
2022/02/08 16:24:07;;;;;;;0.80;0.43;;;11.10;99.90;;;;;;5083177;28;20198;-73
2022/02/08 16:26:44;;;;;;;3.37;0.50;;;11.00;99.90;;;;;;5109882;28;20659;-75
2022/02/08 16:29:33;;;;;;;0.83;0.60;;;10.80;99.90;;;;;;5105738;28;20233;-75
2022/02/08 16:32:29;;;;;;;1.33;0.40;;;10.70;99.90;;;;;;5091972;28;20253;-75
2022/02/08 16:52:15;;;;;;;2.10;0.40;;;10.60;99.90;;;;;;5007046;28;20228;-76
2022/02/08 16:54:44;;;;;;;0.83;0.40;;;10.60;99.90;;;;;;5007246;28;20276;-84
2022/02/08 16:57:17;;;;;;;3.50;0.40;;;10.70;99.90;;;;;;5010457;28;20206;-78
2022/02/08 16:59:45;;;;;;;1.90;0.57;;;10.80;99.90;;;;;;5010131;28;20288;-80
2022/02/08 17:02:18;;;;;;;1.93;0.60;;;10.70;99.90;;;;;;5014903;28;20233;-81
2022/02/08 17:04:46;;;;;;;1.13;0.50;;;10.60;99.90;;;;;;5013113;28;20197;-83
2022/02/08 17:07:13;;;;;;;1.40;0.50;;;10.70;99.90;;;;;;5014695;28;20205;-77
2022/02/08 17:09:45;;;;;;;2.37;0.60;;;10.70;99.90;;;;;;5013131;28;20225;-79
2022/02/08 17:12:22;;;;;;;2.53;0.43;;;10.80;99.90;;;;;;5014548;28;20232;-81
2022/02/08 17:15:11;;;;;;;1.67;0.70;;;10.80;99.90;;;;;;5012300;28;20198;-79
2022/02/08 17:18:17;;;;;;;2.50;0.80;;;10.90;99.90;;;;;;5011489;28;20549;-80
2022/02/08 17:34:40;;;;;;;0.73;0.50;;;11.00;99.90;;;;;;5014697;28;20274;-85
2022/02/08 17:45:44;;;;;;;1.90;0.87;;;10.90;99.90;;;;;;5014807;28;20682;-81
2022/02/08 17:48:11;;;;;;;1.67;0.70;;;10.80;99.90;;;;;;5015394;28;20612;-79
2022/02/08 17:50:38;;;;;;;2.07;0.90;;;10.70;99.90;;;;;;5013857;28;20206;-79
2022/02/08 17:53:06;;;;;;;1.00;0.60;;;10.80;99.90;;;;;;5013782;28;20204;-78
2022/02/08 17:55:33;;;;;;;1.50;0.80;;;10.80;99.90;;;;;;5014286;28;20706;-80
2022/02/08 17:58:02;;;;;;;0.83;0.70;;;10.70;99.90;;;;;;5015237;28;20212;-81
2022/02/08 18:00:32;;;;;;;1.20;0.70;;;10.70;99.90;;;;;;4996731;28;20203;-80
2022/02/08 18:02:59;;;;;;;1.37;0.50;;;10.90;99.90;;;;;;4995414;28;20230;-79
2022/02/08 18:05:26;;;;;;;1.90;0.73;;;10.80;99.90;;;;;;4995534;28;20220;-80
2022/02/08 18:07:53;;;;;;;0.60;0.50;;;10.80;99.90;;;;;;4995418;28;20542;-81
2022/02/08 18:10:23;;;;;;;1.10;0.80;;;10.70;99.90;;;;;;4997848;28;20233;-81
2022/02/08 18:12:53;;;;;;;1.70;0.60;;;10.80;99.90;;;;;;5014695;28;20225;-81
2022/02/08 18:15:23;;;;;;;1.30;0.57;;;10.80;99.90;;;;;;5001920;28;20640;-81
2022/02/08 18:17:52;;;;;;;1.73;0.70;;;10.80;99.90;;;;;;5010068;28;20206;-80
2022/02/08 18:20:28;;;;;;;1.20;0.70;;;10.70;99.90;;;;;;5014316;28;20657;-80
2022/02/08 18:23:13;;;;;;;1.63;0.87;;;10.70;99.90;;;;;;5014010;28;20225;-81
2022/02/08 18:25:55;;;;;;;1.40;0.73;;;10.60;99.90;;;;;;5014396;28;20210;-80
2022/02/08 18:28:37;;;;;;;1.93;0.80;;;10.60;99.90;;;;;;5013034;28;20259;-80
2022/02/08 19:05:49;;;;;;;1.63;0.50;;;10.70;99.90;;;;;;5013344;28;20212;-79
2022/02/08 19:07:42;;;;;;;1.47;0.50;;;10.70;99.90;;;;;;4998291;28;20214;-81
2022/02/08 19:10:51;;;;;;;0.93;0.70;;;10.60;99.90;;;;;;4993935;28;20237;-80
2022/02/08 19:13:28;;;;;;;3.37;1.00;;;10.60;99.90;;;;;;4993783;28;20210;-81
2022/02/08 19:16:22;;;;;;;2.47;0.73;;;10.60;99.90;;;;;;4994341;28;20288;-80
2022/02/08 19:19:06;;;;;;;1.57;0.70;;;10.60;99.90;;;;;;4993209;28;20565;-81
2022/02/08 19:21:37;;;;;;;1.77;0.73;;;10.70;99.90;;;;;;4994138;28;20226;-82
2022/02/08 19:24:05;;;;;;;2.27;0.80;;;10.80;99.90;;;;;;5003863;28;20208;-81
2022/02/08 19:26:32;;;;;;;1.13;0.70;;;10.70;99.90;;;;;;5013294;28;20206;-81
2022/02/08 19:28:59;;;;;;;0.80;0.70;;;10.70;99.90;;;;;;5013633;28;20324;-81
2022/02/08 19:31:27;;;;;;;3.17;0.90;;;10.60;99.90;;;;;;5013334;28;20225;-82
2022/02/08 19:33:56;;;;;;;1.07;0.50;;;10.60;99.90;;;;;;5013769;28;20209;-81
2022/02/08 19:36:23;;;;;;;1.50;0.50;;;10.50;99.90;;;;;;5013572;28;20233;-80
2022/02/08 19:38:50;;;;;;;0.80;0.50;;;10.50;99.90;;;;;;5009042;28;20210;-80
2022/02/08 19:41:19;;;;;;;0.80;0.50;;;10.40;99.90;;;;;;4993708;28;20237;-80
2022/02/08 19:43:46;;;;;;;1.93;0.53;;;10.40;99.90;;;;;;4993934;28;20657;-80
2022/02/08 19:46:13;;;;;;;1.50;0.73;;;10.40;99.90;;;;;;4993825;28;20210;-80
2022/02/08 19:48:41;;;;;;;0.90;0.70;;;10.40;99.90;;;;;;4993935;28;20776;-81
2022/02/08 19:51:08;;;;;;;2.73;1.00;;;10.40;99.90;;;;;;4997144;28;20218;-80
2022/02/08 19:53:36;;;;;;;0.93;0.60;;;10.30;99.90;;;;;;5001789;28;20198;-80
2022/02/08 19:56:19;;;;;;;0.90;0.53;;;10.30;99.90;;;;;;4994386;28;20213;-80
2022/02/08 19:58:49;;;;;;;1.83;0.70;;;10.40;99.90;;;;;;4992185;28;20214;-80
2022/02/08 20:01:21;;;;;;;0.73;0.50;;;10.50;99.90;;;;;;4996435;28;20222;-79
2022/02/08 20:03:55;;;;;;;1.77;0.60;;;10.60;99.90;;;;;;5000603;28;20225;-77
2022/02/08 20:06:23;;;;;;;1.00;0.67;;;10.60;99.90;;;;;;4992522;28;20293;-81
2022/02/08 20:08:50;;;;;;;1.10;0.60;;;10.60;99.90;;;;;;4992793;28;20657;-79
2022/02/08 20:11:16;;;;;;;0.50;0.40;;;10.50;99.90;;;;;;4993223;28;20230;-80
2022/02/08 20:13:51;;;;;;;0.83;0.40;;;10.40;99.90;;;;;;4992566;28;20684;-80
2022/02/08 20:16:18;;;;;;;1.00;0.50;;;10.40;99.90;;;;;;4992759;28;20225;-80
2022/02/08 20:18:47;;;;;;;0.77;0.50;;;10.50;99.90;;;;;;4993063;28;20230;-80
2022/02/08 20:21:15;;;;;;;0.87;0.37;;;10.50;99.90;;;;;;4997243;28;20225;-79
2022/02/08 20:23:43;;;;;;;0.93;0.50;;;10.40;99.90;;;;;;5012349;28;20686;-78
2022/02/08 20:26:10;;;;;;;0.83;0.50;;;10.40;99.90;;;;;;5012322;28;20260;-79
2022/02/08 20:28:39;;;;;;;0.93;0.50;;;10.40;99.90;;;;;;4998190;28;20198;-79
2022/02/08 20:31:07;;;;;;;1.20;0.37;;;10.40;99.90;;;;;;4996384;28;20229;-80
2022/02/08 20:33:34;;;;;;;0.40;0.30;;;10.30;99.90;;;;;;4996703;28;20203;-80
2022/02/08 20:36:00;;;;;;;0.77;0.50;;;10.40;99.90;;;;;;5001597;28;20208;-79
2022/02/08 20:38:29;;;;;;;0.80;0.67;;;10.50;99.90;;;;;;5005246;28;20260;-80
2022/02/08 20:40:56;;;;;;;1.03;0.60;;;10.50;99.90;;;;;;5016026;28;20206;-80
2022/02/08 20:43:23;;;;;;;1.03;0.77;;;10.50;99.90;;;;;;5003096;28;20210;-80
2022/02/08 20:45:50;;;;;;;1.20;0.80;;;10.40;99.90;;;;;;4995643;28;20209;-78
2022/02/08 20:48:21;;;;;;;1.73;0.80;;;10.40;99.90;;;;;;4996956;28;20301;-79
2022/02/08 20:50:50;;;;;;;1.73;0.60;;;10.30;99.90;;;;;;4998926;28;20233;-78
2022/02/08 20:53:33;;;;;;;1.07;0.80;;;10.30;99.90;;;;;;4996418;28;20211;-80
2022/02/08 20:56:09;;;;;;;1.10;0.70;;;10.40;99.90;;;;;;4997739;28;20249;-79
2022/02/08 20:58:50;;;;;;;0.90;0.63;;;10.50;99.90;;;;;;5000105;28;20289;-79
2022/02/08 21:01:17;;;;;;;1.20;0.70;;;10.60;99.90;;;;;;4998178;28;20215;-79
2022/02/08 21:03:52;;;;;;;0.93;0.67;;;10.60;99.90;;;;;;5011309;28;20202;-79
2022/02/08 21:06:21;;;;;;;0.90;0.70;;;10.50;99.90;;;;;;5009087;28;20237;-79
2022/02/08 21:08:49;;;;;;;1.27;1.00;;;10.40;99.90;;;;;;4996059;28;20301;-79
2022/02/08 21:11:18;;;;;;;0.90;0.80;;;10.30;99.90;;;;;;5004304;28;20734;-79
2022/02/08 21:13:50;;;;;;;1.53;1.00;;;10.30;99.90;;;;;;5005079;28;20202;-78
2022/02/08 21:16:20;;;;;;;1.10;0.90;;;10.30;99.90;;;;;;4995359;28;20599;-79
2022/02/08 21:18:47;;;;;;;2.27;0.80;;;10.40;99.90;;;;;;4998710;28;20252;-79
2022/02/08 21:21:14;;;;;;;1.17;0.80;;;10.30;99.90;;;;;;5015286;28;20234;-78
2022/02/08 21:23:43;;;;;;;1.93;0.80;;;10.30;99.90;;;;;;5014996;28;20205;-79
2022/02/08 21:26:13;;;;;;;1.60;0.90;;;10.30;99.90;;;;;;5014564;28;20292;-78
2022/02/08 21:28:56;;;;;;;2.10;1.10;;;10.40;99.90;;;;;;5014919;28;20664;-77
2022/02/08 21:31:44;;;;;;;1.83;1.20;;;10.20;99.90;;;;;;5015056;28;20265;-77
2022/02/08 21:47:58;;;;;;;1.90;1.20;;;10.30;99.90;;;;;;5014929;28;20208;-77
2022/02/08 21:53:26;;;;;;;1.77;1.30;;;10.30;99.90;;;;;;5014498;28;20723;-78
2022/02/08 21:55:58;;;;;;;1.53;1.07;;;10.30;99.90;;;;;;5014746;28;20202;-80
2022/02/08 21:58:27;;;;;;;1.40;1.00;;;10.30;99.90;;;;;;5015117;28;20248;-79
2022/02/08 22:00:59;;;;;;;2.83;1.53;;;10.30;99.90;;;;;;5015166;28;20229;-80
2022/02/08 22:03:26;;;;;;;2.57;1.03;;;10.30;99.90;;;;;;5015809;28;20292;-79
2022/02/08 22:05:53;;;;;;;1.53;1.00;;;10.10;99.90;;;;;;5014888;28;20672;-77
2022/02/08 22:08:28;;;;;;;1.10;0.80;;;10.10;99.90;;;;;;5015152;28;20233;-78
2022/02/08 22:16:50;;;;;;;1.23;0.80;;;10.30;99.90;;;;;;4995637;28;20963;-78
2022/02/08 22:19:32;;;;;;;1.43;0.80;;;10.30;99.90;;;;;;5006605;28;20202;-80
2022/02/08 22:22:07;;;;;;;1.30;0.90;;;10.30;99.90;;;;;;4994419;28;20230;-78
2022/02/08 22:24:49;;;;;;;2.80;0.70;;;10.30;99.90;;;;;;5005738;28;20212;-79
2022/02/08 22:27:34;;;;;;;0.80;0.50;;;10.40;99.90;;;;;;5009339;28;20561;-79
2022/02/08 22:30:19;;;;;;;3.03;0.90;;;10.40;99.90;;;;;;5003957;28;20762;-77
2022/02/08 22:32:48;;;;;;;1.23;0.70;;;10.30;99.90;;;;;;5014449;28;20231;-78
2022/02/08 22:35:22;;;;;;;0.63;0.50;;;10.20;99.90;;;;;;5013704;28;20213;-79
2022/02/08 22:37:58;;;;;;;1.30;0.80;;;10.10;99.90;;;;;;4994364;28;20206;-80
2022/02/08 22:40:29;;;;;;;2.90;0.80;;;10.10;99.90;;;;;;5003950;28;20621;-80
2022/02/08 22:43:04;;;;;;;1.10;0.80;;;10.00;99.90;;;;;;5001378;28;20581;-77
2022/02/08 22:45:33;;;;;;;1.77;0.90;;;9.90;99.90;;;;;;5014206;28;20241;-79
2022/02/08 22:48:01;;;;;;;2.43;0.80;;;10.00;99.90;;;;;;5005206;28;20203;-79
2022/02/08 22:50:29;;;;;;;1.10;0.87;;;10.00;99.90;;;;;;5012999;28;20631;-79
2022/02/08 22:52:55;;;;;;;2.37;1.10;;;10.00;99.90;;;;;;5013083;28;20233;-80
2022/02/08 22:55:25;;;;;;;1.83;1.00;;;9.90;99.90;;;;;;5013301;28;20201;-80
2022/02/08 22:57:57;;;;;;;2.83;1.30;;;10.00;99.90;;;;;;5013549;28;20305;-80
2022/02/08 23:00:24;;;;;;;2.50;1.60;;;10.00;99.90;;;;;;5013607;28;20546;-78
2022/02/08 23:02:51;;;;;;;2.90;1.60;;;10.10;99.90;;;;;;5013763;28;20231;-80
2022/02/08 23:05:20;;;;;;;2.57;1.73;;;10.10;99.90;;;;;;5013579;28;20205;-79
2022/02/08 23:07:49;;;;;;;3.20;1.97;;;10.10;99.90;;;;;;5013551;28;20296;-77
2022/02/08 23:10:19;;;;;;;3.03;1.70;;;10.10;99.90;;;;;;5012415;28;20283;-79
2022/02/08 23:12:56;;;;;;;3.27;2.13;;;10.10;99.90;;;;;;5003683;28;20245;-78
2022/02/08 23:15:38;;;;;;;3.37;2.20;;;10.10;99.90;;;;;;5013200;28;20205;-80
